Main page
METAR-TAF:

METAR-TAF

Airports :

RAF Northolt

Northolt, England

latitude: 51-33N, longitude: 000-25W, elevation: 38 m

Current weather observation

The report was made 1 hour and 6 minutes ago, at 05:50 UTC
Wind 9 kt from the Northeast
Temperature 15°C
Humidity 63%
Pressure 1022 hPa
Visibility 10 km or more
Few clouds at a height of 2800 ft
Scattered clouds at a height of 4000 ft
Broken clouds at a height of 25000 ft

METAR: EGWU 150550Z 04009KT 9999 FEW028 SCT040 BKN250 15/08 Q1022 NOSIG RMK BLU BLU

Time: 07:56 (06:56 UTC)

Forecast

The report was made 2 hours and 38 minutes ago, at 04:18 UTC
Forecast valid from 15 at 06 UTC to 15 at 24 UTC
Wind 6 kt from the Northeast
Visibility 10 km or more
Broken clouds at a height of 3000 ft
Probability 30% :
Temporary
from 15 at 06 UTC to 15 at 09 UTC
Scattered clouds at a height of 2400 ft

TAF: EGWU 150418Z 1506/1524 04006KT 9999 BKN030 PROB30 TEMPO 1506/1509 SCT024

Weather observations and forecasts of more than 4000 airports (METAR and TAF reports).

The available stations are represented by yellow and red dots on the map.

Hover mouse over dot to see the name of the station.

Then click to see weather observations and forecasts.

To change the map : click on the green buttons with a black cross to zoom in, on the green button with a dash to zoom out, or on the green arrows for adjacent maps.


METAR-TAF: